Time;durP1;ratioP1;P1;durP2;ratioP2;P2;SDS_P1;SDS_P2;PMS_P1;PMS_P2;Temp;Humidity;BMP_temperature;BMP_pressure;BME280_temperature;BME280_humidity;BME280_pressure;Samples;Min_cycle;Max_cycle;Signal;HPM_P1;HPM_P2
2023/10/20 00:01:50;;;;;;;25.90;25.00;;;16.50;99.90;;;;;;5024049;28;20597;-65
2023/10/20 00:04:17;;;;;;;25.47;24.60;;;16.50;99.90;;;;;;5032264;28;20617;-65
2023/10/20 00:06:44;;;;;;;21.27;20.57;;;16.50;99.90;;;;;;5032127;28;20216;-64
2023/10/20 00:09:14;;;;;;;23.47;22.63;;;16.50;99.90;;;;;;5031870;28;20215;-65
2023/10/20 00:11:42;;;;;;;26.93;26.03;;;16.50;99.90;;;;;;5032114;28;20323;-65
2023/10/20 00:14:10;;;;;;;23.90;23.10;;;16.50;99.90;;;;;;5031933;28;20207;-65
2023/10/20 00:16:37;;;;;;;23.30;22.50;;;16.40;99.90;;;;;;5031469;28;20741;-66
2023/10/20 00:19:04;;;;;;;26.30;25.37;;;16.50;99.90;;;;;;5031429;28;20662;-65
2023/10/20 00:21:31;;;;;;;24.67;23.80;;;16.50;99.90;;;;;;5031644;28;20228;-66
2023/10/20 00:23:58;;;;;;;29.00;28.00;;;16.40;99.90;;;;;;5031867;28;20580;-64
2023/10/20 00:26:24;;;;;;;27.53;26.60;;;16.40;99.90;;;;;;5032084;28;20209;-65
2023/10/20 00:28:51;;;;;;;35.63;34.33;;;16.40;99.90;;;;;;5028096;28;20197;-65
2023/10/20 00:31:19;;;;;;;32.40;31.30;;;16.40;99.90;;;;;;5036801;28;20248;-64
2023/10/20 00:33:46;;;;;;;37.10;35.83;;;16.30;99.90;;;;;;5031974;28;20300;-64
2023/10/20 00:36:13;;;;;;;32.17;31.07;;;16.30;99.90;;;;;;5032919;28;20208;-68
2023/10/20 00:38:40;;;;;;;31.40;30.30;;;16.30;99.90;;;;;;5029497;28;20631;-64
2023/10/20 00:41:09;;;;;;;30.97;29.87;;;16.30;99.90;;;;;;5032027;28;20274;-64
2023/10/20 00:43:37;;;;;;;32.80;31.67;;;16.30;99.90;;;;;;5032336;28;20587;-64
2023/10/20 00:46:05;;;;;;;35.23;34.00;;;16.30;99.90;;;;;;5031463;28;20211;-64
2023/10/20 00:48:35;;;;;;;34.07;32.87;;;16.30;99.90;;;;;;5031154;28;20347;-64
2023/10/20 00:51:02;;;;;;;32.30;31.17;;;16.30;99.90;;;;;;5025798;28;20541;-64
2023/10/20 00:53:30;;;;;;;30.00;28.93;;;16.30;99.90;;;;;;5030643;28;20670;-64
2023/10/20 00:55:57;;;;;;;29.43;28.37;;;16.30;99.90;;;;;;5030938;28;20250;-63
2023/10/20 00:58:25;;;;;;;26.40;25.47;;;16.30;99.90;;;;;;5031012;28;20204;-65
2023/10/20 01:00:52;;;;;;;25.93;25.03;;;16.30;99.90;;;;;;5029392;28;20204;-64
2023/10/20 01:03:19;;;;;;;22.43;21.63;;;16.40;99.90;;;;;;5031190;28;20598;-64
2023/10/20 01:05:48;;;;;;;32.27;31.10;;;16.40;99.90;;;;;;5030940;28;20207;-64
2023/10/20 01:08:15;;;;;;;29.90;28.80;;;16.40;99.90;;;;;;5030767;28;20212;-64
2023/10/20 01:10:42;;;;;;;26.20;25.20;;;16.40;99.90;;;;;;5028279;28;20204;-64
2023/10/20 01:13:08;;;;;;;21.13;20.40;;;16.40;99.90;;;;;;5030589;28;20296;-65
2023/10/20 01:15:36;;;;;;;17.40;16.80;;;16.50;99.90;;;;;;5030551;28;20262;-64
2023/10/20 01:18:03;;;;;;;20.93;20.23;;;16.40;99.90;;;;;;5030496;28;20602;-64
2023/10/20 01:20:30;;;;;;;22.53;21.73;;;16.40;99.90;;;;;;5030785;28;20212;-65
2023/10/20 01:22:59;;;;;;;20.87;20.17;;;16.40;99.90;;;;;;5030778;28;20243;-64
2023/10/20 01:25:27;;;;;;;20.30;19.60;;;16.50;99.90;;;;;;5030809;28;20208;-66
2023/10/20 01:27:55;;;;;;;16.60;16.00;;;16.40;99.90;;;;;;5030593;28;20243;-66
2023/10/20 01:30:22;;;;;;;21.10;20.30;;;16.50;99.90;;;;;;5030288;28;20297;-64
2023/10/20 01:32:49;;;;;;;24.00;23.20;;;16.60;99.90;;;;;;5030708;28;20220;-65
2023/10/20 01:35:15;;;;;;;27.47;26.53;;;16.60;99.90;;;;;;5030842;28;20204;-64
2023/10/20 01:37:43;;;;;;;35.33;34.13;;;16.60;99.90;;;;;;5021243;28;20200;-65
2023/10/20 01:40:12;;;;;;;31.13;30.07;;;16.50;99.90;;;;;;5030422;28;20611;-65
2023/10/20 01:42:40;;;;;;;22.40;21.63;;;16.50;99.90;;;;;;5030403;28;20229;-65
2023/10/20 01:45:09;;;;;;;16.83;16.23;;;16.50;99.90;;;;;;5030309;28;20590;-65
2023/10/20 01:47:36;;;;;;;23.70;22.90;;;16.50;99.90;;;;;;5030063;28;20205;-65
2023/10/20 01:50:04;;;;;;;23.30;22.50;;;16.50;99.90;;;;;;5030266;28;20201;-64
2023/10/20 01:52:30;;;;;;;29.87;28.87;;;16.50;99.90;;;;;;5030883;28;20224;-65
2023/10/20 01:54:58;;;;;;;28.13;27.13;;;16.50;99.90;;;;;;5022554;28;20200;-65
2023/10/20 01:57:25;;;;;;;25.10;24.23;;;16.50;99.90;;;;;;5030180;28;20216;-65
2023/10/20 01:59:53;;;;;;;27.50;26.57;;;16.50;99.90;;;;;;5023387;28;20280;-66
2023/10/20 02:02:19;;;;;;;32.30;31.20;;;16.50;99.90;;;;;;5030369;28;20236;-64
2023/10/20 02:04:46;;;;;;;30.10;29.07;;;16.40;99.90;;;;;;5030988;28;20252;-65
2023/10/20 02:07:13;;;;;;;40.03;38.63;;;16.40;99.90;;;;;;5030866;28;20212;-66
2023/10/20 02:09:39;;;;;;;53.57;51.70;;;16.40;99.90;;;;;;5022429;28;20219;-66
2023/10/20 02:12:06;;;;;;;42.90;41.40;;;16.40;99.90;;;;;;5030887;28;20224;-66
2023/10/20 02:14:33;;;;;;;43.47;41.90;;;16.40;99.90;;;;;;5030654;28;20702;-66
2023/10/20 02:17:01;;;;;;;39.97;38.57;;;16.30;99.90;;;;;;5030753;28;20235;-65
2023/10/20 02:19:28;;;;;;;42.37;40.87;;;16.30;99.90;;;;;;5031251;28;20582;-65
2023/10/20 02:21:55;;;;;;;39.53;38.13;;;16.20;99.90;;;;;;5034252;28;20319;-66
2023/10/20 02:24:21;;;;;;;50.60;48.87;;;16.20;99.90;;;;;;5034821;28;20228;-64
2023/10/20 02:26:48;;;;;;;44.13;42.60;;;16.20;99.90;;;;;;5034891;28;20201;-65
2023/10/20 02:29:15;;;;;;;50.00;48.27;;;16.20;99.90;;;;;;5033988;28;20219;-65
2023/10/20 02:31:43;;;;;;;47.40;45.73;;;16.20;99.90;;;;;;5039531;28;20244;-68
2023/10/20 02:34:11;;;;;;;46.87;45.23;;;16.20;99.90;;;;;;5043118;28;20197;-65
2023/10/20 02:36:38;;;;;;;56.73;54.70;;;16.10;99.90;;;;;;5040120;28;20232;-65
2023/10/20 02:39:04;;;;;;;72.00;69.43;;;16.10;99.90;;;;;;5040489;28;20231;-65
2023/10/20 02:41:31;;;;;;;48.63;46.87;;;16.10;99.90;;;;;;5033927;28;20229;-66
2023/10/20 02:43:58;;;;;;;44.07;42.47;;;16.00;99.90;;;;;;5039673;28;20220;-67
2023/10/20 02:46:24;;;;;;;45.77;44.10;;;16.10;99.90;;;;;;5031669;28;20622;-66
2023/10/20 02:48:51;;;;;;;34.30;33.07;;;16.10;99.90;;;;;;5045664;28;20216;-66
2023/10/20 02:51:19;;;;;;;65.00;62.13;;;16.10;99.90;;;;;;5038910;28;20221;-66
2023/10/20 02:53:47;;;;;;;61.87;59.53;;;16.20;99.90;;;;;;5044006;28;20836;-66
2023/10/20 02:56:15;;;;;;;56.80;54.87;;;16.10;99.90;;;;;;5038849;28;20209;-67
2023/10/20 02:58:43;;;;;;;62.77;60.60;;;16.10;99.90;;;;;;5044508;28;20215;-66
2023/10/20 03:01:11;;;;;;;58.90;56.83;;;16.20;99.90;;;;;;5040836;28;20232;-68
2023/10/20 03:03:38;;;;;;;40.17;38.77;;;16.10;99.90;;;;;;5033282;28;20204;-65
2023/10/20 03:06:06;;;;;;;59.17;57.10;;;16.10;99.90;;;;;;5032975;28;20228;-66
2023/10/20 03:08:37;;;;;;;47.03;45.40;;;16.10;99.90;;;;;;5032737;28;20208;-66
2023/10/20 03:11:05;;;;;;;46.37;44.77;;;16.10;99.90;;;;;;5032576;28;20244;-66
2023/10/20 03:13:31;;;;;;;40.80;39.40;;;16.20;99.90;;;;;;5032513;28;20259;-67
2023/10/20 03:15:59;;;;;;;51.67;49.90;;;16.20;99.90;;;;;;5032502;28;20201;-67
2023/10/20 03:18:26;;;;;;;34.73;33.53;;;16.20;99.90;;;;;;5032567;28;20267;-66
2023/10/20 03:20:52;;;;;;;36.23;34.97;;;16.20;99.90;;;;;;5031096;28;20562;-66
2023/10/20 03:23:20;;;;;;;40.77;39.27;;;16.20;99.90;;;;;;5032419;28;20223;-66
2023/10/20 03:25:48;;;;;;;34.90;33.70;;;16.30;99.90;;;;;;5032350;28;20221;-66
2023/10/20 03:28:15;;;;;;;62.47;60.33;;;16.30;99.90;;;;;;5032236;28;20280;-66
2023/10/20 03:30:43;;;;;;;46.17;44.57;;;16.30;99.90;;;;;;5031054;28;20221;-68
2023/10/20 03:33:11;;;;;;;53.33;51.50;;;16.30;99.90;;;;;;5031903;28;20216;-66
2023/10/20 03:35:38;;;;;;;91.33;88.20;;;16.20;99.90;;;;;;5032134;28;20237;-66
2023/10/20 03:38:05;;;;;;;71.30;68.83;;;16.20;99.90;;;;;;5031991;28;20304;-66
2023/10/20 03:40:36;;;;;;;41.73;40.23;;;16.20;99.90;;;;;;5031659;28;20227;-66
2023/10/20 03:43:05;;;;;;;37.80;36.50;;;16.20;99.90;;;;;;5032185;28;20282;-66
2023/10/20 03:45:40;;;;;;;36.17;34.90;;;16.20;99.90;;;;;;5033212;28;20220;-66
2023/10/20 03:48:08;;;;;;;29.67;28.67;;;16.20;99.90;;;;;;5033757;28;20204;-67
2023/10/20 03:50:36;;;;;;;61.53;59.43;;;16.20;99.90;;;;;;5033470;28;20212;-66
2023/10/20 03:53:04;;;;;;;63.07;60.90;;;16.30;99.90;;;;;;5033315;28;20224;-66
2023/10/20 03:55:32;;;;;;;35.87;34.60;;;16.30;99.90;;;;;;5032990;28;20208;-66
2023/10/20 03:57:59;;;;;;;47.10;45.50;;;16.30;99.90;;;;;;5033566;28;20240;-66
2023/10/20 04:00:28;;;;;;;52.47;50.63;;;16.30;99.90;;;;;;5032888;28;20227;-67
2023/10/20 04:02:56;;;;;;;62.73;60.60;;;16.30;99.90;;;;;;5032631;28;20263;-66
2023/10/20 04:05:23;;;;;;;31.10;30.03;;;16.30;99.90;;;;;;5033595;28;20228;-66
2023/10/20 04:07:50;;;;;;;31.60;30.53;;;16.30;99.90;;;;;;5033936;28;20208;-66
2023/10/20 04:10:19;;;;;;;38.83;37.50;;;16.40;99.90;;;;;;5033465;28;20219;-67
2023/10/20 04:12:46;;;;;;;56.37;54.40;;;16.40;99.90;;;;;;5033431;28;20229;-68
2023/10/20 04:15:15;;;;;;;68.37;66.07;;;16.40;99.90;;;;;;5033889;28;20224;-67
2023/10/20 04:17:51;;;;;;;46.33;44.77;;;16.30;99.90;;;;;;5033248;28;20236;-66
2023/10/20 04:20:18;;;;;;;60.83;58.70;;;16.30;99.90;;;;;;5032884;28;20204;-66
2023/10/20 04:22:49;;;;;;;52.03;50.23;;;16.30;99.90;;;;;;5033293;28;20232;-66
2023/10/20 04:25:17;;;;;;;41.30;39.87;;;16.20;99.90;;;;;;5033223;28;20274;-66
2023/10/20 04:27:49;;;;;;;55.60;53.70;;;16.20;99.90;;;;;;5032818;28;20586;-66
2023/10/20 04:47:08;;;;;;;14.70;14.20;;;16.40;99.90;;;;;;5031516;28;20204;-67
2023/10/20 04:58:01;;;;;;;14.93;14.43;;;16.80;99.90;;;;;;5032720;28;20208;-66
2023/10/20 05:00:35;;;;;;;14.83;14.30;;;16.80;99.90;;;;;;5032342;28;20505;-66
2023/10/20 05:03:15;;;;;;;21.37;20.57;;;16.90;99.90;;;;;;5030766;28;20281;-65
2023/10/20 05:05:53;;;;;;;24.30;23.37;;;17.10;99.90;;;;;;5031733;28;20282;-65
2023/10/20 05:08:22;;;;;;;13.13;12.73;;;17.20;99.90;;;;;;5031936;28;20196;-66
2023/10/20 05:10:50;;;;;;;17.87;17.27;;;17.30;99.90;;;;;;5032940;28;20201;-67
2023/10/20 05:13:17;;;;;;;15.03;14.53;;;17.40;99.90;;;;;;5033357;28;20629;-65
2023/10/20 05:15:44;;;;;;;15.07;14.47;;;17.40;99.90;;;;;;5032508;28;20200;-66
2023/10/20 05:18:12;;;;;;;16.47;15.93;;;17.40;99.90;;;;;;5031589;28;20207;-66
2023/10/20 05:20:41;;;;;;;13.83;13.33;;;17.40;99.90;;;;;;5030433;28;20209;-67
2023/10/20 05:23:10;;;;;;;14.07;13.57;;;17.50;99.90;;;;;;5030997;28;20278;-65
2023/10/20 05:25:37;;;;;;;13.40;12.90;;;17.60;99.90;;;;;;5030752;28;20236;-66
2023/10/20 05:28:07;;;;;;;12.03;11.63;;;17.60;99.90;;;;;;5030902;28;20604;-67
2023/10/20 05:30:33;;;;;;;12.77;12.37;;;17.70;99.90;;;;;;5030689;28;20200;-65
2023/10/20 05:33:00;;;;;;;12.53;12.13;;;17.70;99.90;;;;;;5030641;28;20279;-65
2023/10/20 05:35:27;;;;;;;11.97;11.57;;;17.80;99.90;;;;;;5030714;28;20200;-65
2023/10/20 05:37:53;;;;;;;12.00;11.60;;;17.80;99.90;;;;;;5034652;28;20204;-66
2023/10/20 05:40:24;;;;;;;12.80;12.30;;;17.90;99.90;;;;;;5046359;28;20212;-65
2023/10/20 05:42:51;;;;;;;12.47;12.07;;;17.90;99.90;;;;;;5048655;28;20204;-66
2023/10/20 05:45:20;;;;;;;11.50;11.10;;;18.00;99.90;;;;;;5045106;28;20719;-64
2023/10/20 05:47:47;;;;;;;12.10;11.70;;;18.00;99.90;;;;;;5048022;28;20216;-64
2023/10/20 05:50:14;;;;;;;11.90;11.50;;;18.10;99.90;;;;;;5034964;28;20200;-67
2023/10/20 05:52:41;;;;;;;12.70;12.20;;;18.10;99.90;;;;;;5030958;28;20228;-66
2023/10/20 05:55:09;;;;;;;12.20;11.80;;;18.10;99.90;;;;;;5030403;28;20258;-65
2023/10/20 05:57:37;;;;;;;12.00;11.60;;;18.10;99.90;;;;;;5030716;28;20288;-68
2023/10/20 06:00:05;;;;;;;11.70;11.30;;;18.20;99.90;;;;;;5020135;28;20203;-67
2023/10/20 06:02:33;;;;;;;12.13;11.73;;;18.20;99.90;;;;;;5031881;28;20710;-65
2023/10/20 06:04:59;;;;;;;12.97;12.57;;;18.20;99.90;;;;;;5030324;28;20224;-66
2023/10/20 06:07:27;;;;;;;12.10;11.70;;;18.20;99.90;;;;;;5030426;28;20209;-67
2023/10/20 06:09:54;;;;;;;11.93;11.53;;;18.20;99.90;;;;;;5030521;28;20201;-66
2023/10/20 06:12:21;;;;;;;12.10;11.70;;;18.40;99.90;;;;;;5030621;28;20256;-64
2023/10/20 06:14:49;;;;;;;12.00;11.60;;;18.40;99.90;;;;;;5030046;28;20204;-65
2023/10/20 06:17:18;;;;;;;11.80;11.40;;;18.50;99.90;;;;;;5031994;28;20224;-65
2023/10/20 06:19:46;;;;;;;11.77;11.37;;;18.50;99.90;;;;;;5030899;28;20255;-64
2023/10/20 06:22:12;;;;;;;11.97;11.57;;;18.50;99.90;;;;;;5031558;28;20737;-64
2023/10/20 06:24:39;;;;;;;12.03;11.63;;;18.50;99.90;;;;;;5031091;28;20215;-65
2023/10/20 06:27:06;;;;;;;11.87;11.47;;;18.40;99.90;;;;;;5031003;28;20211;-65
2023/10/20 06:29:43;;;;;;;11.60;11.20;;;18.40;99.90;;;;;;5030211;28;20211;-66
2023/10/20 06:32:20;;;;;;;11.90;11.50;;;18.40;99.90;;;;;;5024969;28;20342;-64
2023/10/20 06:34:47;;;;;;;12.60;12.20;;;18.40;99.90;;;;;;5030490;28;20218;-65
2023/10/20 06:37:19;;;;;;;12.20;11.80;;;18.40;99.90;;;;;;5031591;28;20205;-66
2023/10/20 06:39:47;;;;;;;11.57;11.17;;;18.50;99.90;;;;;;5029984;28;20220;-65
2023/10/20 06:42:15;;;;;;;12.30;11.90;;;18.50;99.90;;;;;;5030487;28;20224;-65
2023/10/20 06:44:41;;;;;;;12.00;11.60;;;18.50;99.90;;;;;;5030593;28;20200;-65
2023/10/20 06:47:08;;;;;;;11.73;11.33;;;18.50;99.90;;;;;;5031781;28;20197;-64
2023/10/20 06:49:36;;;;;;;12.70;12.30;;;18.60;99.90;;;;;;5032687;28;20576;-66
2023/10/20 06:52:04;;;;;;;12.00;11.60;;;18.60;99.90;;;;;;5026698;28;20231;-65
2023/10/20 06:54:31;;;;;;;11.80;11.40;;;18.60;99.90;;;;;;5027619;28;20229;-65
2023/10/20 06:56:59;;;;;;;11.30;10.90;;;18.60;99.90;;;;;;5027010;28;20197;-65
2023/10/20 06:59:26;;;;;;;12.70;12.30;;;18.60;99.90;;;;;;5024966;28;20208;-65
2023/10/20 07:01:57;;;;;;;12.97;12.57;;;18.50;99.90;;;;;;5031560;28;20235;-65
2023/10/20 07:04:24;;;;;;;14.33;13.83;;;18.40;99.90;;;;;;5030401;28;20205;-65
2023/10/20 07:06:53;;;;;;;14.50;14.00;;;18.10;99.90;;;;;;5032832;28;20315;-66
2023/10/20 07:09:20;;;;;;;14.37;13.87;;;17.90;99.90;;;;;;5033941;28;20580;-64
2023/10/20 07:11:48;;;;;;;13.53;13.03;;;17.90;99.90;;;;;;5033428;28;20260;-65
2023/10/20 07:14:14;;;;;;;13.23;12.80;;;17.80;99.90;;;;;;5034047;28;20274;-65
2023/10/20 07:16:41;;;;;;;14.07;13.57;;;17.70;99.90;;;;;;5027422;28;20275;-66
2023/10/20 07:19:09;;;;;;;14.43;13.93;;;17.60;99.90;;;;;;5024095;28;20197;-65
2023/10/20 07:21:36;;;;;;;15.57;15.07;;;17.60;99.90;;;;;;5029394;28;20225;-65
2023/10/20 07:24:04;;;;;;;15.70;15.10;;;17.60;99.90;;;;;;5029640;28;20201;-65
2023/10/20 07:26:31;;;;;;;14.87;14.37;;;17.40;99.90;;;;;;5033633;28;20231;-65
2023/10/20 07:28:57;;;;;;;13.83;13.33;;;17.20;99.90;;;;;;5033039;28;20205;-65
2023/10/20 07:31:26;;;;;;;16.67;15.93;;;17.10;99.90;;;;;;5033243;28;20231;-65
2023/10/20 07:33:53;;;;;;;15.20;14.70;;;17.10;99.90;;;;;;5033404;28;20211;-64
2023/10/20 07:36:20;;;;;;;14.23;13.73;;;17.00;99.90;;;;;;5033515;28;20201;-65
2023/10/20 07:38:47;;;;;;;16.63;16.07;;;17.10;99.90;;;;;;5033111;28;20243;-65
2023/10/20 07:41:15;;;;;;;14.83;14.33;;;17.00;99.90;;;;;;5033007;28;20248;-65
2023/10/20 07:43:42;;;;;;;15.23;14.73;;;17.00;99.90;;;;;;5033053;28;20586;-65
2023/10/20 07:46:15;;;;;;;14.50;14.00;;;17.00;99.90;;;;;;5033281;28;20224;-65
2023/10/20 07:48:42;;;;;;;14.30;13.80;;;17.00;99.90;;;;;;5032965;28;20236;-65
2023/10/20 07:51:09;;;;;;;14.95;14.45;;;17.00;99.90;;;;;;5032803;28;20714;-65
2023/10/20 07:53:36;;;;;;;15.00;14.50;;;17.00;99.90;;;;;;5033195;28;20200;-64
2023/10/20 07:56:03;;;;;;;14.20;13.70;;;17.00;99.90;;;;;;5026425;28;20201;-64
2023/10/20 07:58:32;;;;;;;15.33;14.83;;;17.00;99.90;;;;;;5033019;28;20296;-65
2023/10/20 08:01:00;;;;;;;19.03;18.37;;;17.10;99.90;;;;;;5028025;28;20275;-65
2023/10/20 08:03:27;;;;;;;14.50;14.00;;;17.10;99.90;;;;;;5033071;28;20201;-64
2023/10/20 08:05:53;;;;;;;14.07;13.57;;;17.10;99.90;;;;;;5032715;28;20224;-65
2023/10/20 08:08:20;;;;;;;14.50;13.90;;;17.10;99.90;;;;;;5032852;28;20209;-64
2023/10/20 08:10:47;;;;;;;15.10;14.60;;;17.10;99.90;;;;;;5032272;28;20635;-64
2023/10/20 08:13:14;;;;;;;14.10;13.60;;;17.20;99.90;;;;;;5033002;28;20209;-64
2023/10/20 08:15:42;;;;;;;14.90;14.40;;;17.20;99.90;;;;;;5032377;28;20201;-65
2023/10/20 08:18:10;;;;;;;15.13;14.63;;;17.20;99.90;;;;;;5032039;28;20205;-64
2023/10/20 08:20:37;;;;;;;15.20;14.70;;;17.20;99.90;;;;;;5032261;28;20235;-65
2023/10/20 08:23:04;;;;;;;14.70;14.20;;;17.20;99.90;;;;;;5032511;28;20231;-65
2023/10/20 08:25:31;;;;;;;14.20;13.70;;;17.30;99.90;;;;;;5032412;28;20228;-65
2023/10/20 08:27:58;;;;;;;14.30;13.80;;;17.30;99.90;;;;;;5029045;28;20208;-65
2023/10/20 08:30:25;;;;;;;13.87;13.40;;;17.30;99.90;;;;;;5030660;28;20850;-65
2023/10/20 08:32:53;;;;;;;13.40;13.00;;;17.40;99.90;;;;;;5032474;28;20228;-65
2023/10/20 08:35:20;;;;;;;14.10;13.60;;;17.40;99.90;;;;;;5032631;28;20207;-65
2023/10/20 08:37:46;;;;;;;13.63;13.20;;;17.50;99.90;;;;;;5032585;28;20702;-65
2023/10/20 08:40:13;;;;;;;13.73;13.23;;;17.50;99.90;;;;;;5032355;28;20201;-64
2023/10/20 08:42:41;;;;;;;13.93;13.43;;;17.60;99.90;;;;;;5038869;28;20231;-65
2023/10/20 08:45:10;;;;;;;14.03;13.53;;;17.60;99.90;;;;;;5053977;28;20201;-65
2023/10/20 08:47:38;;;;;;;13.93;13.43;;;17.70;99.90;;;;;;5053178;28;20232;-65
2023/10/20 08:50:09;;;;;;;14.00;13.50;;;17.70;99.90;;;;;;5053013;28;20197;-65
2023/10/20 08:52:36;;;;;;;14.17;13.67;;;17.70;99.90;;;;;;5052270;28;20224;-66
2023/10/20 08:55:07;;;;;;;15.17;14.67;;;17.70;99.90;;;;;;5041934;28;20197;-65
2023/10/20 08:57:34;;;;;;;14.20;13.70;;;17.70;99.90;;;;;;5033131;28;20230;-64
2023/10/20 09:00:00;;;;;;;14.73;14.23;;;17.80;99.90;;;;;;5040273;28;20201;-65
2023/10/20 09:02:36;;;;;;;14.07;13.57;;;17.80;99.90;;;;;;5034009;28;20229;-64
2023/10/20 09:05:03;;;;;;;15.70;15.10;;;17.80;99.90;;;;;;5029071;28;20208;-64
2023/10/20 09:07:31;;;;;;;13.97;13.47;;;17.70;99.90;;;;;;5026022;28;20225;-65
2023/10/20 09:09:58;;;;;;;13.13;12.63;;;17.80;99.90;;;;;;5024314;28;20224;-64
2023/10/20 09:12:26;;;;;;;13.77;13.27;;;17.80;99.90;;;;;;5028408;28;20302;-65
2023/10/20 09:14:53;;;;;;;13.77;13.27;;;17.80;99.90;;;;;;5029194;28;20212;-65
2023/10/20 09:17:23;;;;;;;14.47;13.97;;;17.90;99.90;;;;;;5031446;28;20649;-64
2023/10/20 09:19:49;;;;;;;14.77;14.27;;;17.90;99.90;;;;;;5028485;28;20201;-64
2023/10/20 09:22:26;;;;;;;14.20;13.70;;;17.90;99.90;;;;;;5031246;28;20226;-64
2023/10/20 09:24:55;;;;;;;14.82;14.32;;;18.00;99.90;;;;;;5030750;28;20624;-66
2023/10/20 09:27:22;;;;;;;13.80;13.30;;;17.90;99.90;;;;;;5031463;28;20283;-66
2023/10/20 09:29:50;;;;;;;14.20;13.70;;;17.90;99.90;;;;;;5026896;28;20675;-65
2023/10/20 09:32:18;;;;;;;14.17;13.67;;;18.00;99.90;;;;;;5023205;28;20227;-65
2023/10/20 09:34:45;;;;;;;15.27;14.77;;;18.10;99.90;;;;;;5026193;28;20201;-64
2023/10/20 09:37:15;;;;;;;15.30;14.80;;;18.10;99.90;;;;;;5027064;28;20197;-64
2023/10/20 09:39:44;;;;;;;19.07;18.40;;;18.10;99.90;;;;;;5030684;28;20207;-66
2023/10/20 09:42:20;;;;;;;15.07;14.57;;;18.10;99.90;;;;;;5030896;28;20231;-65
2023/10/20 09:44:52;;;;;;;20.40;19.70;;;18.10;99.90;;;;;;5031092;28;20274;-64
2023/10/20 09:47:23;;;;;;;16.23;15.67;;;18.10;99.90;;;;;;5031523;28;20254;-65
2023/10/20 09:49:52;;;;;;;19.30;18.63;;;18.10;99.90;;;;;;5030920;28;20227;-64
2023/10/20 09:52:19;;;;;;;14.80;14.30;;;18.10;99.90;;;;;;5031056;28;20225;-65
2023/10/20 09:54:50;;;;;;;14.77;14.27;;;18.00;99.90;;;;;;5030951;28;20647;-64
2023/10/20 09:57:19;;;;;;;18.40;17.80;;;18.00;99.90;;;;;;5031326;28;20239;-64
2023/10/20 09:59:52;;;;;;;14.83;14.33;;;18.00;99.90;;;;;;5024767;28;20197;-66
2023/10/20 10:02:28;;;;;;;14.60;14.10;;;18.10;99.90;;;;;;5024437;28;20239;-64
2023/10/20 10:04:55;;;;;;;14.47;13.97;;;18.10;99.90;;;;;;5021600;28;20291;-65
2023/10/20 10:07:29;;;;;;;18.43;17.83;;;18.10;99.90;;;;;;5026082;28;20666;-66
2023/10/20 10:09:56;;;;;;;14.43;13.93;;;18.10;99.90;;;;;;5024034;28;20204;-64
2023/10/20 10:12:27;;;;;;;13.60;13.20;;;18.10;99.90;;;;;;5022594;28;20602;-65
2023/10/20 10:14:59;;;;;;;13.30;12.90;;;18.10;99.90;;;;;;5024164;28;20667;-64
2023/10/20 10:17:26;;;;;;;12.77;12.37;;;18.20;99.90;;;;;;5023124;28;20202;-64
2023/10/20 10:19:55;;;;;;;12.00;11.60;;;18.30;99.90;;;;;;5024190;28;20200;-65
2023/10/20 10:22:27;;;;;;;13.73;13.27;;;18.30;99.90;;;;;;5022937;28;20229;-64
2023/10/20 10:24:55;;;;;;;12.20;11.80;;;18.30;99.90;;;;;;5024192;28;20204;-65
2023/10/20 10:27:23;;;;;;;12.33;11.93;;;18.40;99.90;;;;;;5022771;28;20232;-64
2023/10/20 10:29:54;;;;;;;12.37;11.97;;;18.40;99.90;;;;;;5024969;28;20200;-65
2023/10/20 10:32:22;;;;;;;13.37;12.93;;;18.50;99.90;;;;;;5021603;28;20225;-65
2023/10/20 10:34:51;;;;;;;12.32;11.93;;;18.60;99.90;;;;;;5023750;28;20208;-65
2023/10/20 10:37:28;;;;;;;13.03;12.63;;;18.60;99.90;;;;;;5024569;28;20208;-65
2023/10/20 10:40:04;;;;;;;14.10;13.60;;;18.60;99.90;;;;;;5024136;28;20196;-64
2023/10/20 10:42:31;;;;;;;13.13;12.73;;;18.70;99.90;;;;;;5028011;28;20228;-65
2023/10/20 10:44:59;;;;;;;12.47;12.07;;;18.70;99.90;;;;;;5028081;28;20655;-65
2023/10/20 10:47:27;;;;;;;12.40;12.00;;;18.70;99.90;;;;;;5025152;28;20221;-66
2023/10/20 10:49:54;;;;;;;13.40;13.00;;;18.70;99.90;;;;;;5026526;28;20205;-65
2023/10/20 10:52:21;;;;;;;19.43;18.73;;;18.80;99.90;;;;;;5026532;28;20723;-65
2023/10/20 10:54:48;;;;;;;13.25;12.85;;;18.70;99.90;;;;;;5028666;28;20284;-65
2023/10/20 10:57:16;;;;;;;13.20;12.80;;;18.70;99.90;;;;;;5028589;28;20202;-65
2023/10/20 10:59:44;;;;;;;13.73;13.27;;;18.70;99.90;;;;;;5030449;28;20288;-65
2023/10/20 11:02:12;;;;;;;14.07;13.57;;;18.70;99.90;;;;;;5028390;28;20228;-65
2023/10/20 11:04:39;;;;;;;13.60;13.13;;;18.80;99.90;;;;;;5030621;28;20205;-65
2023/10/20 11:07:05;;;;;;;14.50;14.03;;;18.90;99.90;;;;;;5030977;28;20235;-65
2023/10/20 11:09:33;;;;;;;12.87;12.47;;;18.90;99.90;;;;;;5029210;28;20206;-65
2023/10/20 11:12:00;;;;;;;16.57;15.97;;;18.90;99.90;;;;;;5027504;28;20256;-66
2023/10/20 11:14:26;;;;;;;16.27;15.73;;;19.00;99.90;;;;;;5027717;28;20208;-67
2023/10/20 11:16:53;;;;;;;15.73;15.23;;;19.00;99.90;;;;;;5028225;28;20197;-66
2023/10/20 11:19:22;;;;;;;13.57;13.07;;;19.00;99.90;;;;;;5024715;28;20210;-66
2023/10/20 11:21:51;;;;;;;14.50;14.00;;;19.20;99.90;;;;;;5030020;28;20224;-65
2023/10/20 11:24:26;;;;;;;14.73;14.23;;;19.50;99.90;;;;;;5029162;28;20212;-65
2023/10/20 11:27:00;;;;;;;15.10;14.60;;;19.70;99.90;;;;;;5031846;28;20243;-65
2023/10/20 11:29:31;;;;;;;15.30;14.80;;;19.90;99.90;;;;;;5030726;28;20234;-65
2023/10/20 11:31:59;;;;;;;20.13;19.43;;;20.00;99.90;;;;;;5027272;28;20235;-65
2023/10/20 11:34:28;;;;;;;15.13;14.63;;;20.00;99.90;;;;;;5033389;28;20278;-64
2023/10/20 11:36:54;;;;;;;14.80;14.30;;;19.90;99.90;;;;;;5033492;28;20200;-65
2023/10/20 11:39:24;;;;;;;14.80;14.30;;;19.80;99.90;;;;;;5032244;28;20204;-65
2023/10/20 11:41:52;;;;;;;15.13;14.63;;;19.70;99.90;;;;;;5029757;28;20228;-66
2023/10/20 11:44:19;;;;;;;14.80;14.30;;;19.70;99.90;;;;;;5028198;28;20220;-65
2023/10/20 11:46:45;;;;;;;14.47;13.97;;;19.60;99.90;;;;;;5028845;28;20221;-65
2023/10/20 11:49:12;;;;;;;14.77;14.27;;;19.50;99.90;;;;;;5030847;28;20197;-65
2023/10/20 11:51:41;;;;;;;14.87;14.37;;;19.40;99.90;;;;;;5030767;28;20283;-65
2023/10/20 11:54:08;;;;;;;15.10;14.60;;;19.30;99.90;;;;;;5032798;28;20208;-65
2023/10/20 11:56:35;;;;;;;14.23;13.73;;;19.30;99.90;;;;;;5033250;28;20216;-66
2023/10/20 11:59:01;;;;;;;13.83;13.33;;;19.30;99.90;;;;;;5033247;28;20204;-63
2023/10/20 12:01:31;;;;;;;13.60;13.17;;;19.20;99.90;;;;;;5032920;28;20263;-64
2023/10/20 12:03:58;;;;;;;13.98;13.48;;;19.20;99.90;;;;;;5033760;28;20659;-65
2023/10/20 12:06:25;;;;;;;13.40;13.00;;;19.10;99.90;;;;;;5033415;28;20208;-65
2023/10/20 12:08:53;;;;;;;13.93;13.43;;;19.10;99.90;;;;;;5031640;28;20236;-66
2023/10/20 12:11:20;;;;;;;13.50;13.10;;;19.00;99.90;;;;;;5032882;28;20240;-65
2023/10/20 12:13:48;;;;;;;13.50;13.10;;;19.10;99.90;;;;;;5033331;28;20212;-66
2023/10/20 12:16:15;;;;;;;13.60;13.10;;;19.10;99.90;;;;;;5031362;28;20204;-65
2023/10/20 12:18:41;;;;;;;13.82;13.32;;;19.10;99.90;;;;;;5035709;28;20205;-66
2023/10/20 12:21:08;;;;;;;13.97;13.47;;;19.10;99.90;;;;;;5034957;28;20247;-64
2023/10/20 12:23:36;;;;;;;14.10;13.60;;;19.10;99.90;;;;;;5034114;28;20216;-65
2023/10/20 12:26:04;;;;;;;15.00;14.50;;;19.00;99.90;;;;;;5033693;28;20212;-66
2023/10/20 12:28:31;;;;;;;13.65;13.15;;;18.90;99.90;;;;;;5032811;28;20228;-65
2023/10/20 12:30:58;;;;;;;13.97;13.50;;;18.80;99.90;;;;;;5033338;28;20609;-66
2023/10/20 12:33:24;;;;;;;13.93;13.43;;;18.70;99.90;;;;;;5032864;28;20208;-65
2023/10/20 12:35:53;;;;;;;13.63;13.20;;;18.70;99.90;;;;;;5033223;28;20266;-66
2023/10/20 12:38:21;;;;;;;13.37;12.97;;;18.60;99.90;;;;;;5033376;28;20208;-66
2023/10/20 12:40:48;;;;;;;13.50;13.07;;;18.60;99.90;;;;;;5043515;28;20204;-66
2023/10/20 12:43:16;;;;;;;13.37;12.97;;;18.60;99.90;;;;;;5041137;28;20566;-65
2023/10/20 12:45:43;;;;;;;12.60;12.20;;;18.60;99.90;;;;;;5044952;28;20208;-66
2023/10/20 12:48:10;;;;;;;13.03;12.63;;;18.60;99.90;;;;;;5045374;28;20311;-65
2023/10/20 12:50:36;;;;;;;12.97;12.47;;;18.50;99.90;;;;;;5041849;28;20272;-65
2023/10/20 12:53:04;;;;;;;12.70;12.30;;;18.50;99.90;;;;;;5038970;28;20228;-67
2023/10/20 12:55:31;;;;;;;13.03;12.63;;;18.60;99.90;;;;;;5031370;28;20212;-66
2023/10/20 12:57:58;;;;;;;12.48;12.07;;;18.60;99.90;;;;;;5036919;28;20237;-66